Terminal Aerodrome Forecast
Issued by NWS

Home | Current Version | Previous Version | Graphics & Text | Print | Product List | Glossary Off
Versions: 1 2 3 4 5 6 7 8 9 10 11 12 13 14 15 16 17 18 19 20 21

000
FTUS43 KDDC 230246 AAB
TAFGCK
TAF AMD
KGCK 230246Z 2303/2324 16008KT P6SM OVC009
     FM230600 17008KT 4SM BR OVC005
     FM230900 VRB05KT 1/2SM FG OVC002
     FM231900 16006KT P6SM SCT035=

USA.gov is the U.S. government's official web portal to all federal, state and local government web resources and services.